sensor_id;sensor_type;location;lat;lon;timestamp;P1;durP1;ratioP1;P2;durP2;ratioP2
18194;SDS011;9223;50.988;3.162;2023-06-24T00:02:42;3.97;;;3.17;;
18194;SDS011;9223;50.988;3.162;2023-06-24T00:08:47;5.22;;;3.30;;
18194;SDS011;9223;50.988;3.162;2023-06-24T00:14:50;4.03;;;3.50;;
18194;SDS011;9223;50.988;3.162;2023-06-24T00:20:55;5.45;;;3.97;;
18194;SDS011;9223;50.988;3.162;2023-06-24T00:26:59;6.65;;;4.60;;
18194;SDS011;9223;50.988;3.162;2023-06-24T00:33:02;4.78;;;3.67;;
18194;SDS011;9223;50.988;3.162;2023-06-24T00:39:08;5.10;;;4.10;;
18194;SDS011;9223;50.988;3.162;2023-06-24T00:45:12;4.88;;;4.38;;
18194;SDS011;9223;50.988;3.162;2023-06-24T00:51:18;4.95;;;4.22;;
18194;SDS011;9223;50.988;3.162;2023-06-24T00:57:24;5.30;;;4.63;;
18194;SDS011;9223;50.988;3.162;2023-06-24T01:03:30;6.32;;;4.85;;
18194;SDS011;9223;50.988;3.162;2023-06-24T01:09:34;6.22;;;4.57;;
18194;SDS011;9223;50.988;3.162;2023-06-24T01:15:39;5.63;;;4.80;;
18194;SDS011;9223;50.988;3.162;2023-06-24T01:21:44;8.00;;;4.90;;
18194;SDS011;9223;50.988;3.162;2023-06-24T01:34:18;5.88;;;4.90;;
18194;SDS011;9223;50.988;3.162;2023-06-24T01:40:25;7.00;;;5.00;;
18194;SDS011;9223;50.988;3.162;2023-06-24T01:46:29;5.93;;;4.68;;
18194;SDS011;9223;50.988;3.162;2023-06-24T01:52:34;6.38;;;4.75;;
18194;SDS011;9223;50.988;3.162;2023-06-24T01:58:38;7.95;;;5.53;;
18194;SDS011;9223;50.988;3.162;2023-06-24T02:04:43;6.20;;;4.75;;
18194;SDS011;9223;50.988;3.162;2023-06-24T02:10:48;6.63;;;5.25;;
18194;SDS011;9223;50.988;3.162;2023-06-24T02:16:52;6.53;;;5.25;;
18194;SDS011;9223;50.988;3.162;2023-06-24T02:22:58;6.28;;;5.43;;
18194;SDS011;9223;50.988;3.162;2023-06-24T02:29:03;7.78;;;5.35;;
18194;SDS011;9223;50.988;3.162;2023-06-24T02:35:07;7.72;;;5.63;;
18194;SDS011;9223;50.988;3.162;2023-06-24T02:41:11;7.60;;;5.53;;
18194;SDS011;9223;50.988;3.162;2023-06-24T02:47:17;6.40;;;5.32;;
18194;SDS011;9223;50.988;3.162;2023-06-24T02:53:21;7.35;;;5.57;;
18194;SDS011;9223;50.988;3.162;2023-06-24T02:59:25;8.57;;;6.13;;
18194;SDS011;9223;50.988;3.162;2023-06-24T03:05:30;7.25;;;6.00;;
18194;SDS011;9223;50.988;3.162;2023-06-24T03:11:40;8.55;;;6.10;;
18194;SDS011;9223;50.988;3.162;2023-06-24T03:17:43;8.20;;;6.47;;
18194;SDS011;9223;50.988;3.162;2023-06-24T03:23:48;8.93;;;6.57;;
18194;SDS011;9223;50.988;3.162;2023-06-24T03:29:52;8.85;;;6.18;;
18194;SDS011;9223;50.988;3.162;2023-06-24T03:35:55;8.93;;;5.88;;
18194;SDS011;9223;50.988;3.162;2023-06-24T03:42:00;9.05;;;6.32;;
18194;SDS011;9223;50.988;3.162;2023-06-24T03:48:04;7.70;;;6.28;;
18194;SDS011;9223;50.988;3.162;2023-06-24T03:54:08;9.70;;;6.80;;
18194;SDS011;9223;50.988;3.162;2023-06-24T04:00:13;8.48;;;6.63;;
18194;SDS011;9223;50.988;3.162;2023-06-24T04:06:18;11.55;;;6.50;;
18194;SDS011;9223;50.988;3.162;2023-06-24T04:12:22;9.20;;;6.45;;
18194;SDS011;9223;50.988;3.162;2023-06-24T04:18:27;7.28;;;6.15;;
18194;SDS011;9223;50.988;3.162;2023-06-24T04:24:30;8.85;;;6.65;;
18194;SDS011;9223;50.988;3.162;2023-06-24T04:30:34;8.20;;;6.38;;
18194;SDS011;9223;50.988;3.162;2023-06-24T04:36:41;9.13;;;6.75;;
18194;SDS011;9223;50.988;3.162;2023-06-24T04:42:44;8.35;;;6.35;;
18194;SDS011;9223;50.988;3.162;2023-06-24T04:48:48;8.68;;;6.43;;
18194;SDS011;9223;50.988;3.162;2023-06-24T04:54:53;7.95;;;6.60;;
18194;SDS011;9223;50.988;3.162;2023-06-24T05:00:56;8.07;;;6.32;;
18194;SDS011;9223;50.988;3.162;2023-06-24T05:07:00;8.65;;;6.45;;
18194;SDS011;9223;50.988;3.162;2023-06-24T05:13:05;9.73;;;7.13;;
18194;SDS011;9223;50.988;3.162;2023-06-24T05:19:09;10.52;;;6.82;;
18194;SDS011;9223;50.988;3.162;2023-06-24T05:25:12;8.02;;;6.47;;
18194;SDS011;9223;50.988;3.162;2023-06-24T05:31:17;9.98;;;6.90;;
18194;SDS011;9223;50.988;3.162;2023-06-24T05:37:21;8.93;;;6.88;;
18194;SDS011;9223;50.988;3.162;2023-06-24T05:43:25;8.25;;;6.55;;
18194;SDS011;9223;50.988;3.162;2023-06-24T05:49:30;9.35;;;6.60;;
18194;SDS011;9223;50.988;3.162;2023-06-24T05:55:33;7.05;;;6.18;;
18194;SDS011;9223;50.988;3.162;2023-06-24T06:01:37;9.93;;;6.88;;
18194;SDS011;9223;50.988;3.162;2023-06-24T06:07:42;9.70;;;6.05;;
18194;SDS011;9223;50.988;3.162;2023-06-24T06:13:45;8.18;;;5.28;;
18194;SDS011;9223;50.988;3.162;2023-06-24T06:19:49;7.65;;;6.25;;
18194;SDS011;9223;50.988;3.162;2023-06-24T06:25:55;11.10;;;5.88;;
18194;SDS011;9223;50.988;3.162;2023-06-24T06:31:58;5.80;;;4.85;;
18194;SDS011;9223;50.988;3.162;2023-06-24T06:38:02;6.50;;;5.40;;
18194;SDS011;9223;50.988;3.162;2023-06-24T06:44:07;7.60;;;5.72;;
18194;SDS011;9223;50.988;3.162;2023-06-24T06:50:11;10.73;;;7.53;;
18194;SDS011;9223;50.988;3.162;2023-06-24T06:56:18;8.45;;;6.47;;
18194;SDS011;9223;50.988;3.162;2023-06-24T07:02:23;9.40;;;7.45;;
18194;SDS011;9223;50.988;3.162;2023-06-24T07:08:28;9.63;;;7.50;;
18194;SDS011;9223;50.988;3.162;2023-06-24T07:14:31;9.57;;;7.60;;
18194;SDS011;9223;50.988;3.162;2023-06-24T07:20:36;8.15;;;6.50;;
18194;SDS011;9223;50.988;3.162;2023-06-24T07:26:42;11.02;;;7.80;;
18194;SDS011;9223;50.988;3.162;2023-06-24T07:32:46;7.18;;;6.22;;
18194;SDS011;9223;50.988;3.162;2023-06-24T07:38:51;7.75;;;6.07;;
18194;SDS011;9223;50.988;3.162;2023-06-24T07:44:57;8.32;;;7.07;;
18194;SDS011;9223;50.988;3.162;2023-06-24T07:51:00;9.85;;;6.45;;
18194;SDS011;9223;50.988;3.162;2023-06-24T07:57:06;14.15;;;8.20;;
18194;SDS011;9223;50.988;3.162;2023-06-24T08:03:09;13.23;;;7.97;;
18194;SDS011;9223;50.988;3.162;2023-06-24T08:09:15;13.15;;;8.68;;
18194;SDS011;9223;50.988;3.162;2023-06-24T08:15:20;12.07;;;7.05;;
18194;SDS011;9223;50.988;3.162;2023-06-24T08:21:23;11.82;;;7.63;;
18194;SDS011;9223;50.988;3.162;2023-06-24T08:27:27;8.35;;;6.38;;
18194;SDS011;9223;50.988;3.162;2023-06-24T08:33:32;8.43;;;6.60;;
18194;SDS011;9223;50.988;3.162;2023-06-24T08:39:35;9.43;;;7.35;;
18194;SDS011;9223;50.988;3.162;2023-06-24T08:45:40;9.88;;;7.85;;
18194;SDS011;9223;50.988;3.162;2023-06-24T08:51:49;9.30;;;7.30;;
18194;SDS011;9223;50.988;3.162;2023-06-24T08:57:54;9.98;;;7.63;;
18194;SDS011;9223;50.988;3.162;2023-06-24T09:03:57;9.88;;;8.07;;
18194;SDS011;9223;50.988;3.162;2023-06-24T09:10:03;8.98;;;7.40;;
18194;SDS011;9223;50.988;3.162;2023-06-24T09:16:13;19.63;;;7.00;;
18194;SDS011;9223;50.988;3.162;2023-06-24T09:22:17;9.48;;;7.07;;
18194;SDS011;9223;50.988;3.162;2023-06-24T09:28:22;9.48;;;7.10;;
18194;SDS011;9223;50.988;3.162;2023-06-24T09:34:29;8.93;;;7.05;;
18194;SDS011;9223;50.988;3.162;2023-06-24T09:40:34;9.48;;;7.63;;
18194;SDS011;9223;50.988;3.162;2023-06-24T09:46:40;8.32;;;6.57;;
18194;SDS011;9223;50.988;3.162;2023-06-24T09:52:44;9.23;;;7.18;;
18194;SDS011;9223;50.988;3.162;2023-06-24T09:58:47;9.90;;;6.32;;
18194;SDS011;9223;50.988;3.162;2023-06-24T10:04:52;9.40;;;6.40;;
18194;SDS011;9223;50.988;3.162;2023-06-24T10:10:57;5.88;;;5.15;;
18194;SDS011;9223;50.988;3.162;2023-06-24T10:17:01;7.70;;;4.68;;
18194;SDS011;9223;50.988;3.162;2023-06-24T10:23:07;6.85;;;5.00;;
18194;SDS011;9223;50.988;3.162;2023-06-24T10:29:11;7.20;;;4.45;;
18194;SDS011;9223;50.988;3.162;2023-06-24T10:35:22;4.50;;;4.00;;
18194;SDS011;9223;50.988;3.162;2023-06-24T10:41:28;4.80;;;3.90;;
18194;SDS011;9223;50.988;3.162;2023-06-24T10:47:32;5.10;;;4.30;;
18194;SDS011;9223;50.988;3.162;2023-06-24T10:53:36;5.07;;;3.20;;
18194;SDS011;9223;50.988;3.162;2023-06-24T10:59:42;4.97;;;3.92;;
18194;SDS011;9223;50.988;3.162;2023-06-24T11:05:46;4.18;;;3.78;;
18194;SDS011;9223;50.988;3.162;2023-06-24T11:11:49;4.05;;;3.42;;
18194;SDS011;9223;50.988;3.162;2023-06-24T11:17:55;8.05;;;4.38;;
18194;SDS011;9223;50.988;3.162;2023-06-24T11:24:00;4.82;;;3.70;;
18194;SDS011;9223;50.988;3.162;2023-06-24T11:30:04;5.72;;;3.33;;
18194;SDS011;9223;50.988;3.162;2023-06-24T11:36:10;6.72;;;3.10;;
18194;SDS011;9223;50.988;3.162;2023-06-24T11:42:13;3.17;;;2.80;;
18194;SDS011;9223;50.988;3.162;2023-06-24T11:48:17;9.30;;;3.60;;
18194;SDS011;9223;50.988;3.162;2023-06-24T11:54:24;4.68;;;3.60;;
18194;SDS011;9223;50.988;3.162;2023-06-24T12:00:28;6.22;;;4.28;;
18194;SDS011;9223;50.988;3.162;2023-06-24T12:06:32;3.92;;;3.50;;
18194;SDS011;9223;50.988;3.162;2023-06-24T12:12:37;8.43;;;3.88;;
18194;SDS011;9223;50.988;3.162;2023-06-24T12:18:40;6.78;;;3.25;;
18194;SDS011;9223;50.988;3.162;2023-06-24T12:24:44;5.15;;;3.95;;
18194;SDS011;9223;50.988;3.162;2023-06-24T12:30:49;5.63;;;3.42;;
18194;SDS011;9223;50.988;3.162;2023-06-24T12:36:52;4.10;;;3.00;;
18194;SDS011;9223;50.988;3.162;2023-06-24T12:42:56;2.80;;;2.55;;
18194;SDS011;9223;50.988;3.162;2023-06-24T12:49:02;2.85;;;2.53;;
18194;SDS011;9223;50.988;3.162;2023-06-24T12:55:06;3.70;;;2.85;;
18194;SDS011;9223;50.988;3.162;2023-06-24T13:01:10;2.45;;;2.25;;
18194;SDS011;9223;50.988;3.162;2023-06-24T13:07:17;5.38;;;2.42;;
18194;SDS011;9223;50.988;3.162;2023-06-24T13:13:21;3.72;;;2.50;;
18194;SDS011;9223;50.988;3.162;2023-06-24T13:19:24;3.42;;;2.80;;
18194;SDS011;9223;50.988;3.162;2023-06-24T13:25:29;4.45;;;3.25;;
18194;SDS011;9223;50.988;3.162;2023-06-24T13:31:33;4.10;;;2.72;;
18194;SDS011;9223;50.988;3.162;2023-06-24T13:37:37;4.10;;;2.90;;
18194;SDS011;9223;50.988;3.162;2023-06-24T13:43:42;3.90;;;2.42;;
18194;SDS011;9223;50.988;3.162;2023-06-24T13:49:45;3.70;;;2.60;;
18194;SDS011;9223;50.988;3.162;2023-06-24T13:55:49;4.53;;;2.58;;
18194;SDS011;9223;50.988;3.162;2023-06-24T14:01:57;3.15;;;2.47;;
18194;SDS011;9223;50.988;3.162;2023-06-24T14:08:00;2.60;;;2.40;;
18194;SDS011;9223;50.988;3.162;2023-06-24T14:14:05;2.72;;;2.20;;
18194;SDS011;9223;50.988;3.162;2023-06-24T14:20:11;1.98;;;1.77;;
18194;SDS011;9223;50.988;3.162;2023-06-24T14:26:14;2.92;;;2.70;;
18194;SDS011;9223;50.988;3.162;2023-06-24T14:32:18;2.63;;;2.10;;
18194;SDS011;9223;50.988;3.162;2023-06-24T14:38:23;2.53;;;2.33;;
18194;SDS011;9223;50.988;3.162;2023-06-24T14:44:29;2.45;;;2.00;;
18194;SDS011;9223;50.988;3.162;2023-06-24T14:50:33;2.15;;;1.98;;
18194;SDS011;9223;50.988;3.162;2023-06-24T14:56:38;2.70;;;2.30;;
18194;SDS011;9223;50.988;3.162;2023-06-24T15:02:42;2.13;;;1.90;;
18194;SDS011;9223;50.988;3.162;2023-06-24T15:08:45;4.95;;;2.20;;
18194;SDS011;9223;50.988;3.162;2023-06-24T15:14:50;4.38;;;2.97;;
18194;SDS011;9223;50.988;3.162;2023-06-24T15:20:54;3.67;;;2.35;;
18194;SDS011;9223;50.988;3.162;2023-06-24T15:26:58;2.75;;;2.38;;
18194;SDS011;9223;50.988;3.162;2023-06-24T15:33:03;3.08;;;2.78;;
18194;SDS011;9223;50.988;3.162;2023-06-24T15:39:07;2.90;;;2.28;;
18194;SDS011;9223;50.988;3.162;2023-06-24T15:45:10;2.63;;;2.42;;
18194;SDS011;9223;50.988;3.162;2023-06-24T15:51:15;5.60;;;4.80;;
18194;SDS011;9223;50.988;3.162;2023-06-24T15:57:18;4.13;;;3.50;;
18194;SDS011;9223;50.988;3.162;2023-06-24T16:03:22;3.10;;;2.70;;
18194;SDS011;9223;50.988;3.162;2023-06-24T16:09:27;3.28;;;2.83;;
18194;SDS011;9223;50.988;3.162;2023-06-24T16:15:31;6.30;;;4.13;;
18194;SDS011;9223;50.988;3.162;2023-06-24T16:21:34;6.10;;;4.35;;
18194;SDS011;9223;50.988;3.162;2023-06-24T16:27:39;4.53;;;3.50;;
18194;SDS011;9223;50.988;3.162;2023-06-24T16:33:43;8.18;;;6.07;;
18194;SDS011;9223;50.988;3.162;2023-06-24T16:39:47;12.23;;;7.05;;
18194;SDS011;9223;50.988;3.162;2023-06-24T16:45:52;7.82;;;6.07;;
18194;SDS011;9223;50.988;3.162;2023-06-24T16:51:56;7.13;;;6.20;;
18194;SDS011;9223;50.988;3.162;2023-06-24T16:57:59;6.75;;;6.07;;
18194;SDS011;9223;50.988;3.162;2023-06-24T17:04:05;6.90;;;6.20;;
18194;SDS011;9223;50.988;3.162;2023-06-24T17:10:08;7.40;;;5.82;;
18194;SDS011;9223;50.988;3.162;2023-06-24T17:16:12;8.50;;;6.20;;
18194;SDS011;9223;50.988;3.162;2023-06-24T17:22:16;7.32;;;5.90;;
18194;SDS011;9223;50.988;3.162;2023-06-24T17:28:20;7.43;;;5.75;;
18194;SDS011;9223;50.988;3.162;2023-06-24T17:34:23;6.70;;;5.18;;
18194;SDS011;9223;50.988;3.162;2023-06-24T17:40:28;11.27;;;8.60;;
18194;SDS011;9223;50.988;3.162;2023-06-24T17:46:32;12.50;;;9.90;;
18194;SDS011;9223;50.988;3.162;2023-06-24T17:52:35;9.98;;;7.85;;
18194;SDS011;9223;50.988;3.162;2023-06-24T17:58:40;8.63;;;6.50;;
18194;SDS011;9223;50.988;3.162;2023-06-24T18:04:44;8.75;;;5.30;;
18194;SDS011;9223;50.988;3.162;2023-06-24T18:10:48;7.95;;;5.72;;
18194;SDS011;9223;50.988;3.162;2023-06-24T18:16:53;9.85;;;5.85;;
18194;SDS011;9223;50.988;3.162;2023-06-24T18:22:57;6.10;;;4.93;;
18194;SDS011;9223;50.988;3.162;2023-06-24T18:29:00;5.80;;;4.80;;
18194;SDS011;9223;50.988;3.162;2023-06-24T18:35:06;6.55;;;5.32;;
18194;SDS011;9223;50.988;3.162;2023-06-24T18:41:09;5.20;;;4.63;;
18194;SDS011;9223;50.988;3.162;2023-06-24T18:47:13;8.45;;;6.97;;
18194;SDS011;9223;50.988;3.162;2023-06-24T18:53:18;8.45;;;7.43;;
18194;SDS011;9223;50.988;3.162;2023-06-24T18:59:22;7.28;;;5.57;;
18194;SDS011;9223;50.988;3.162;2023-06-24T19:05:26;4.45;;;4.05;;
18194;SDS011;9223;50.988;3.162;2023-06-24T19:11:32;4.93;;;4.07;;
18194;SDS011;9223;50.988;3.162;2023-06-24T19:17:36;6.25;;;5.00;;
18194;SDS011;9223;50.988;3.162;2023-06-24T19:23:40;5.13;;;3.95;;
18194;SDS011;9223;50.988;3.162;2023-06-24T19:29:44;5.47;;;3.75;;
18194;SDS011;9223;50.988;3.162;2023-06-24T19:35:48;5.95;;;3.83;;
18194;SDS011;9223;50.988;3.162;2023-06-24T19:41:51;5.88;;;4.22;;
18194;SDS011;9223;50.988;3.162;2023-06-24T19:47:56;4.63;;;3.80;;
18194;SDS011;9223;50.988;3.162;2023-06-24T19:54:00;6.97;;;5.50;;
18194;SDS011;9223;50.988;3.162;2023-06-24T20:00:04;6.85;;;5.07;;
18194;SDS011;9223;50.988;3.162;2023-06-24T20:06:09;7.10;;;6.45;;
18194;SDS011;9223;50.988;3.162;2023-06-24T20:12:13;6.40;;;5.80;;
18194;SDS011;9223;50.988;3.162;2023-06-24T20:18:17;6.57;;;5.88;;
18194;SDS011;9223;50.988;3.162;2023-06-24T20:24:21;7.20;;;6.20;;
18194;SDS011;9223;50.988;3.162;2023-06-24T20:30:25;7.28;;;5.95;;
18194;SDS011;9223;50.988;3.162;2023-06-24T20:36:29;7.60;;;6.75;;
18194;SDS011;9223;50.988;3.162;2023-06-24T20:42:35;9.88;;;7.28;;
18194;SDS011;9223;50.988;3.162;2023-06-24T20:48:38;8.55;;;7.72;;
18194;SDS011;9223;50.988;3.162;2023-06-24T20:54:42;12.52;;;7.97;;
18194;SDS011;9223;50.988;3.162;2023-06-24T21:00:47;10.15;;;7.43;;
18194;SDS011;9223;50.988;3.162;2023-06-24T21:06:51;10.65;;;7.68;;
18194;SDS011;9223;50.988;3.162;2023-06-24T21:12:54;8.57;;;7.10;;
18194;SDS011;9223;50.988;3.162;2023-06-24T21:19:00;9.75;;;7.47;;
18194;SDS011;9223;50.988;3.162;2023-06-24T21:25:04;8.23;;;7.32;;
18194;SDS011;9223;50.988;3.162;2023-06-24T21:31:09;10.82;;;8.23;;
18194;SDS011;9223;50.988;3.162;2023-06-24T21:37:18;12.32;;;8.68;;
18194;SDS011;9223;50.988;3.162;2023-06-24T21:43:22;9.35;;;8.30;;
18194;SDS011;9223;50.988;3.162;2023-06-24T21:49:25;8.50;;;7.63;;
18194;SDS011;9223;50.988;3.162;2023-06-24T21:55:30;11.35;;;8.30;;
18194;SDS011;9223;50.988;3.162;2023-06-24T22:01:34;9.95;;;8.27;;
18194;SDS011;9223;50.988;3.162;2023-06-24T22:07:37;10.10;;;7.97;;
18194;SDS011;9223;50.988;3.162;2023-06-24T22:13:42;11.00;;;7.85;;
18194;SDS011;9223;50.988;3.162;2023-06-24T22:19:46;10.77;;;7.53;;
18194;SDS011;9223;50.988;3.162;2023-06-24T22:25:49;11.43;;;8.13;;
18194;SDS011;9223;50.988;3.162;2023-06-24T22:31:54;10.38;;;8.13;;
18194;SDS011;9223;50.988;3.162;2023-06-24T22:37:58;10.70;;;8.02;;
18194;SDS011;9223;50.988;3.162;2023-06-24T22:44:01;11.35;;;8.95;;
18194;SDS011;9223;50.988;3.162;2023-06-24T22:50:07;10.15;;;8.80;;
18194;SDS011;9223;50.988;3.162;2023-06-24T22:56:10;11.57;;;9.50;;
18194;SDS011;9223;50.988;3.162;2023-06-24T23:02:14;10.73;;;9.13;;
18194;SDS011;9223;50.988;3.162;2023-06-24T23:08:19;12.75;;;9.45;;
18194;SDS011;9223;50.988;3.162;2023-06-24T23:14:23;12.15;;;9.25;;
18194;SDS011;9223;50.988;3.162;2023-06-24T23:20:27;12.95;;;9.98;;
18194;SDS011;9223;50.988;3.162;2023-06-24T23:26:33;12.85;;;10.05;;
18194;SDS011;9223;50.988;3.162;2023-06-24T23:32:41;14.77;;;11.60;;
18194;SDS011;9223;50.988;3.162;2023-06-24T23:38:45;14.63;;;11.27;;
18194;SDS011;9223;50.988;3.162;2023-06-24T23:44:50;16.10;;;11.85;;
18194;SDS011;9223;50.988;3.162;2023-06-24T23:50:55;16.23;;;11.73;;
18194;SDS011;9223;50.988;3.162;2023-06-24T23:56:58;15.90;;;12.32;;
